createdAt,value
2023-05-25T00:00:10.591Z,102024.84
2023-05-25T00:02:38.384Z,102029.50
2023-05-25T00:05:07.996Z,102026.78
2023-05-25T00:07:34.673Z,102023.16
2023-05-25T00:10:01.338Z,102018.19
2023-05-25T00:12:28.080Z,102026.06
2023-05-25T00:14:54.579Z,102011.69
2023-05-25T00:17:21.810Z,102028.84
2023-05-25T00:19:48.793Z,102021.38
2023-05-25T00:22:15.649Z,102027.03
2023-05-25T00:24:42.265Z,102020.56
2023-05-25T00:27:08.730Z,102024.53
2023-05-25T00:29:35.989Z,102015.16
2023-05-25T00:32:03.086Z,102020.81
2023-05-25T00:34:29.543Z,102022.00
2023-05-25T00:36:56.186Z,102021.75
2023-05-25T00:39:22.769Z,102020.50
2023-05-25T00:41:50.124Z,102023.78
2023-05-25T00:44:21.329Z,102017.56
2023-05-25T00:46:50.652Z,102018.00
2023-05-25T00:49:18.779Z,102017.63
2023-05-25T00:51:46.951Z,102011.78
2023-05-25T00:54:17.890Z,102018.16
2023-05-25T00:56:47.383Z,102011.31
2023-05-25T00:59:20.728Z,102008.91
2023-05-25T01:01:48.994Z,102006.44
2023-05-25T01:04:17.213Z,102010.13
2023-05-25T01:06:48.665Z,102011.50
2023-05-25T01:09:19.478Z,102013.00
2023-05-25T01:11:50.228Z,102006.91
2023-05-25T01:14:24.998Z,102003.13
2023-05-25T01:16:52.209Z,101998.25
2023-05-25T01:19:18.854Z,102003.44
2023-05-25T01:21:59.758Z,102002.16
2023-05-25T01:24:40.787Z,102006.97
2023-05-25T01:27:30.560Z,102012.00
2023-05-25T01:29:58.892Z,102014.56
2023-05-25T01:32:26.453Z,102015.41
2023-05-25T01:34:56.249Z,102011.47
2023-05-25T01:37:24.591Z,102025.06
2023-05-25T01:39:51.146Z,102022.75
2023-05-25T01:42:17.591Z,102009.09
2023-05-25T01:44:44.784Z,102010.59
2023-05-25T01:47:24.185Z,102015.63
2023-05-25T01:50:11.856Z,102017.13
2023-05-25T01:52:48.766Z,102007.56
2023-05-25T01:55:19.127Z,102013.03
2023-05-25T01:57:50.869Z,102013.09
2023-05-25T02:00:19.675Z,102013.53
2023-05-25T02:02:48.070Z,102015.16
2023-05-25T02:05:14.782Z,102011.66
2023-05-25T02:07:41.351Z,102017.00
2023-05-25T02:10:08.214Z,102017.38
2023-05-25T02:12:34.776Z,102021.16
2023-05-25T02:15:01.360Z,102026.56
2023-05-25T02:17:30.118Z,102014.94
2023-05-25T02:19:56.677Z,102013.28
2023-05-25T02:22:23.725Z,102002.59
2023-05-25T02:24:50.643Z,102013.22
2023-05-25T02:27:17.099Z,102010.88
2023-05-25T02:29:43.649Z,102013.38
2023-05-25T02:32:10.076Z,102012.94
2023-05-25T02:34:37.268Z,102011.88
2023-05-25T02:37:04.004Z,102011.03
2023-05-25T02:39:30.642Z,102010.66
2023-05-25T02:41:58.915Z,102009.22
2023-05-25T02:44:26.547Z,102015.84
2023-05-25T02:46:53.161Z,102015.63
2023-05-25T02:49:19.923Z,102020.59
2023-05-25T02:51:47.932Z,102023.53
2023-05-25T02:54:14.451Z,102023.16
2023-05-25T02:56:42.366Z,102025.59
2023-05-25T02:59:10.861Z,102020.22
2023-05-25T03:01:37.349Z,102017.53
2023-05-25T03:04:04.040Z,102027.06
2023-05-25T03:06:36.668Z,102026.69
2023-05-25T03:09:16.752Z,102031.66
2023-05-25T03:11:45.806Z,102033.75
2023-05-25T03:14:15.934Z,102032.03
2023-05-25T03:16:48.030Z,102036.16
2023-05-25T03:19:14.548Z,102030.94
2023-05-25T03:21:41.318Z,102037.91
2023-05-25T03:24:07.894Z,102038.53
2023-05-25T03:26:34.384Z,102043.34
2023-05-25T03:29:02.259Z,102037.47
2023-05-25T03:31:29.382Z,102044.41
2023-05-25T03:33:56.176Z,102043.09
2023-05-25T03:36:27.414Z,102042.22
2023-05-25T03:38:54.750Z,102042.44
2023-05-25T03:41:21.778Z,102038.59
2023-05-25T03:43:49.267Z,102048.53
2023-05-25T03:46:15.925Z,102039.91
2023-05-25T03:48:43.242Z,102052.78
2023-05-25T03:51:09.753Z,102059.25
2023-05-25T03:53:36.250Z,102054.91
2023-05-25T03:56:02.695Z,102050.31
2023-05-25T03:58:29.189Z,102053.75
2023-05-25T04:00:56.233Z,102060.00
2023-05-25T04:03:23.017Z,102061.59
2023-05-25T04:05:50.080Z,102060.31
2023-05-25T04:08:19.927Z,102066.09
2023-05-25T04:10:47.081Z,102063.53
2023-05-25T04:13:13.699Z,102070.16
2023-05-25T04:15:40.601Z,102074.91
2023-05-25T04:18:15.387Z,102071.75
2023-05-25T04:20:42.025Z,102076.03
2023-05-25T04:23:11.816Z,102076.41
2023-05-25T04:25:39.599Z,102072.75
2023-05-25T04:28:08.388Z,102077.50
2023-05-25T04:30:46.057Z,102076.78
2023-05-25T04:33:30.080Z,102068.91
2023-05-25T04:36:14.196Z,102082.28
2023-05-25T04:38:43.024Z,102082.56
2023-05-25T04:41:09.877Z,102083.31
2023-05-25T04:43:43.928Z,102084.25
2023-05-25T04:46:19.334Z,102083.56
2023-05-25T04:48:45.929Z,102084.28
2023-05-25T04:51:12.693Z,102093.13
2023-05-25T04:53:40.018Z,102097.25
2023-05-25T04:56:06.803Z,102100.78
2023-05-25T04:58:33.690Z,102096.38
2023-05-25T05:01:00.441Z,102097.09
2023-05-25T05:03:28.162Z,102098.50
2023-05-25T05:05:54.890Z,102106.69
2023-05-25T05:08:25.261Z,102094.31
2023-05-25T05:10:51.998Z,102102.38
2023-05-25T05:13:18.471Z,102102.50
2023-05-25T05:15:45.165Z,102114.16
2023-05-25T05:18:12.877Z,102111.22
2023-05-25T05:20:39.476Z,102111.66
2023-05-25T05:23:06.456Z,102112.16
2023-05-25T05:25:33.663Z,102116.75
2023-05-25T05:28:00.751Z,102121.72
2023-05-25T05:30:33.812Z,102121.03
2023-05-25T05:33:01.863Z,102124.56
2023-05-25T05:35:33.440Z,102131.13
2023-05-25T05:38:07.210Z,102140.03
2023-05-25T05:40:33.743Z,102141.78
2023-05-25T05:43:01.844Z,102147.09
2023-05-25T05:45:28.272Z,102147.72
2023-05-25T05:47:55.490Z,102148.53
2023-05-25T05:50:22.425Z,102161.41
2023-05-25T05:52:49.053Z,102162.59
2023-05-25T05:55:15.727Z,102169.47
2023-05-25T05:57:43.152Z,102158.69
2023-05-25T06:00:10.431Z,102167.31
2023-05-25T06:02:43.008Z,102164.97
2023-05-25T06:05:13.217Z,102162.13
2023-05-25T06:07:41.956Z,102167.59
2023-05-25T06:10:09.014Z,102167.34
2023-05-25T06:12:35.670Z,102170.88
2023-05-25T06:15:02.759Z,102167.59
2023-05-25T06:17:30.045Z,102172.91
2023-05-25T06:19:56.653Z,102165.22
2023-05-25T06:22:25.417Z,102168.78
2023-05-25T06:24:52.212Z,102168.91
2023-05-25T06:27:18.708Z,102172.22
2023-05-25T06:29:45.442Z,102161.44
2023-05-25T06:32:12.024Z,102168.06
2023-05-25T06:34:38.751Z,102165.94
2023-05-25T06:37:05.415Z,102170.56
2023-05-25T06:39:32.078Z,102173.25
2023-05-25T06:42:02.837Z,102177.47
2023-05-25T06:44:32.380Z,102186.50
2023-05-25T06:47:02.645Z,102178.72
2023-05-25T06:49:30.715Z,102181.78
2023-05-25T06:51:57.302Z,102187.56
2023-05-25T06:54:23.902Z,102184.19
2023-05-25T06:56:51.422Z,102178.38
2023-05-25T06:59:18.373Z,102194.06
2023-05-25T07:01:47.919Z,102194.91
2023-05-25T07:04:14.403Z,102192.66
2023-05-25T07:06:40.887Z,102196.59
2023-05-25T07:09:07.450Z,102198.78
2023-05-25T07:11:33.928Z,102204.78
2023-05-25T07:14:00.420Z,102200.97
2023-05-25T07:16:27.156Z,102197.03
2023-05-25T07:18:53.718Z,102206.75
2023-05-25T07:21:20.392Z,102215.47
2023-05-25T07:23:47.091Z,102211.66
2023-05-25T07:26:13.738Z,102210.75
2023-05-25T07:28:40.267Z,102210.50
2023-05-25T07:31:06.772Z,102212.97
2023-05-25T07:33:33.348Z,102209.25
2023-05-25T07:35:59.857Z,102201.84
2023-05-25T07:38:26.632Z,102208.78
2023-05-25T07:40:53.106Z,102205.94
2023-05-25T07:43:21.353Z,102201.91
2023-05-25T07:45:48.052Z,102203.38
2023-05-25T07:48:14.505Z,102209.94
2023-05-25T07:50:41.354Z,102218.06
2023-05-25T07:53:07.763Z,102218.78
2023-05-25T07:55:34.269Z,102218.56
2023-05-25T07:58:00.934Z,102213.44
2023-05-25T08:00:27.743Z,102207.97
2023-05-25T08:02:56.365Z,102219.88
2023-05-25T08:05:23.036Z,102213.19
2023-05-25T08:07:49.514Z,102222.44
2023-05-25T08:10:16.281Z,102221.69
2023-05-25T08:12:49.508Z,102232.75
2023-05-25T08:15:16.932Z,102230.41
2023-05-25T08:17:43.689Z,102236.72
2023-05-25T08:20:10.959Z,102226.06
2023-05-25T08:22:37.464Z,102228.31
2023-05-25T08:25:05.112Z,102228.16
2023-05-25T08:27:33.644Z,102229.75
2023-05-25T08:30:02.445Z,102231.31
2023-05-25T08:32:29.088Z,102234.94
2023-05-25T08:34:55.624Z,102230.97
2023-05-25T08:37:22.533Z,102236.84
2023-05-25T08:39:49.300Z,102241.13
2023-05-25T08:42:15.849Z,102232.47
2023-05-25T08:44:43.059Z,102243.59
2023-05-25T08:47:11.774Z,102247.50
2023-05-25T08:49:39.524Z,102242.50
2023-05-25T08:52:13.962Z,102244.34
2023-05-25T08:54:44.008Z,102252.38
2023-05-25T08:57:20.856Z,102243.38
2023-05-25T08:59:56.444Z,102252.47
2023-05-25T09:03:14.164Z,102259.03
2023-05-25T09:05:40.858Z,102247.09
2023-05-25T09:08:08.580Z,102249.94
2023-05-25T09:10:36.468Z,102248.28
2023-05-25T09:13:19.090Z,102248.97
2023-05-25T09:15:49.203Z,102247.34
2023-05-25T09:18:15.848Z,102247.81
2023-05-25T09:20:44.335Z,102248.19
2023-05-25T09:23:14.362Z,102245.22
2023-05-25T09:25:41.389Z,102251.13
2023-05-25T09:28:25.761Z,102251.66
2023-05-25T09:30:54.114Z,102249.31
2023-05-25T09:33:20.998Z,102250.94
2023-05-25T09:35:48.188Z,102255.19
2023-05-25T09:38:17.942Z,102252.56
2023-05-25T09:40:45.718Z,102267.34
2023-05-25T09:43:17.324Z,102268.22
2023-05-25T09:45:49.084Z,102269.03
2023-05-25T09:48:16.014Z,102268.13
2023-05-25T09:50:43.100Z,102267.13
2023-05-25T09:53:10.981Z,102271.91
2023-05-25T09:55:52.148Z,102270.19
2023-05-25T09:58:23.668Z,102276.66
2023-05-25T10:00:54.601Z,102273.69
2023-05-25T10:03:22.417Z,102280.41
2023-05-25T10:05:49.512Z,102277.75
2023-05-25T10:08:21.899Z,102278.25
2023-05-25T10:10:50.391Z,102285.84
2023-05-25T10:13:26.839Z,102285.00
2023-05-25T10:15:54.713Z,102288.31
2023-05-25T10:18:28.465Z,102291.00
2023-05-25T10:21:03.187Z,102292.69
2023-05-25T10:23:41.629Z,102287.22
2023-05-25T10:26:09.353Z,102282.19
2023-05-25T10:28:37.322Z,102285.88
2023-05-25T10:31:04.775Z,102290.94
2023-05-25T10:33:32.621Z,102283.50
2023-05-25T10:36:10.022Z,102286.59
2023-05-25T10:38:40.326Z,102283.91
2023-05-25T10:41:09.708Z,102286.97
2023-05-25T10:43:37.128Z,102286.22
2023-05-25T10:46:06.161Z,102288.50
2023-05-25T10:48:37.366Z,102283.25
2023-05-25T10:51:04.573Z,102284.25
2023-05-25T10:53:31.070Z,102278.59
2023-05-25T10:56:02.660Z,102282.00
2023-05-25T10:58:30.114Z,102284.41
2023-05-25T11:00:59.591Z,102285.72
2023-05-25T11:03:45.152Z,102282.22
2023-05-25T11:06:15.625Z,102283.31
2023-05-25T11:08:55.055Z,102292.16
2023-05-25T11:11:22.764Z,102289.41
2023-05-25T11:13:50.529Z,102286.28
2023-05-25T11:16:22.087Z,102283.19
2023-05-25T11:18:53.373Z,102292.84
2023-05-25T11:21:27.138Z,102280.72
2023-05-25T11:23:54.631Z,102282.34
2023-05-25T11:26:22.767Z,102277.69
2023-05-25T11:28:51.146Z,102277.63
2023-05-25T11:31:29.932Z,102280.09
2023-05-25T11:34:02.046Z,102277.31
2023-05-25T11:36:33.514Z,102276.81
2023-05-25T11:39:11.620Z,102272.88
2023-05-25T11:42:02.213Z,102262.56
2023-05-25T11:44:31.582Z,102256.50
2023-05-25T11:47:02.187Z,102263.59
2023-05-25T11:49:29.133Z,102256.53
2023-05-25T11:51:57.309Z,102256.59
2023-05-25T11:54:28.191Z,102250.31
2023-05-25T11:56:58.978Z,102249.25
2023-05-25T11:59:28.221Z,102245.09
2023-05-25T12:02:03.677Z,102240.84
2023-05-25T12:04:32.816Z,102231.13
2023-05-25T12:07:07.674Z,102233.78
2023-05-25T12:09:35.221Z,102236.00
2023-05-25T12:12:06.129Z,102226.44
2023-05-25T12:14:35.919Z,102230.41
2023-05-25T12:17:02.506Z,102230.72
2023-05-25T12:19:29.461Z,102229.59
2023-05-25T12:21:56.801Z,102232.38
2023-05-25T12:24:23.377Z,102227.47
2023-05-25T12:26:51.643Z,102227.97
2023-05-25T12:29:18.151Z,102231.25
2023-05-25T12:31:44.829Z,102224.97
2023-05-25T12:34:16.354Z,102216.19
2023-05-25T12:36:45.057Z,102222.81
2023-05-25T12:39:13.797Z,102209.00
2023-05-25T12:41:47.480Z,102209.56
2023-05-25T12:44:18.187Z,102208.22
2023-05-25T12:46:44.807Z,102206.63
2023-05-25T12:49:26.820Z,102213.66
2023-05-25T12:51:53.609Z,102208.78
2023-05-25T12:54:43.912Z,102208.84
2023-05-25T12:57:15.055Z,102198.94
2023-05-25T12:59:46.292Z,102204.91
2023-05-25T13:02:14.637Z,102206.84
2023-05-25T13:04:42.109Z,102209.09
2023-05-25T13:07:09.903Z,102215.97
2023-05-25T13:09:37.644Z,102210.84
2023-05-25T13:12:04.580Z,102207.84
2023-05-25T13:14:31.161Z,102215.00
2023-05-25T13:16:57.966Z,102198.94
2023-05-25T13:19:25.953Z,102214.94
2023-05-25T13:21:53.341Z,102206.59
2023-05-25T13:24:19.758Z,102198.91
2023-05-25T13:26:49.193Z,102205.84
2023-05-25T13:29:17.403Z,102203.84
2023-05-25T13:31:44.275Z,102203.03
2023-05-25T13:34:10.844Z,102196.22
2023-05-25T13:36:37.418Z,102198.16
2023-05-25T13:39:05.212Z,102195.56
2023-05-25T13:41:31.785Z,102193.59
2023-05-25T13:43:58.408Z,102197.41
2023-05-25T13:46:34.331Z,102190.84
2023-05-25T13:49:02.694Z,102184.44
2023-05-25T13:51:29.598Z,102178.28
2023-05-25T13:53:56.016Z,102173.06
2023-05-25T13:56:23.225Z,102175.13
2023-05-25T13:58:49.803Z,102170.50
2023-05-25T14:01:16.397Z,102166.69
2023-05-25T14:03:43.155Z,102176.28
2023-05-25T14:06:09.653Z,102177.78
2023-05-25T14:08:36.100Z,102175.47
2023-05-25T14:11:02.996Z,102174.47
2023-05-25T14:13:29.898Z,102171.66
2023-05-25T14:15:56.454Z,102165.13
2023-05-25T14:18:23.071Z,102158.72
2023-05-25T14:20:49.675Z,102166.50
2023-05-25T14:23:18.346Z,102162.38
2023-05-25T14:25:46.570Z,102162.91
2023-05-25T14:28:13.542Z,102161.66
2023-05-25T14:30:40.095Z,102165.81
2023-05-25T14:33:06.677Z,102163.56
2023-05-25T14:35:33.170Z,102164.28
2023-05-25T14:37:59.913Z,102156.00
2023-05-25T14:40:26.494Z,102159.75
2023-05-25T14:42:55.804Z,102165.72
2023-05-25T14:45:22.469Z,102159.16
2023-05-25T14:47:50.630Z,102158.72
2023-05-25T14:50:18.447Z,102151.00
2023-05-25T14:52:45.005Z,102152.53
2023-05-25T14:55:11.510Z,102155.22
2023-05-25T14:57:37.931Z,102155.09
2023-05-25T15:00:04.769Z,102161.75
2023-05-25T15:02:31.372Z,102163.88
2023-05-25T15:04:58.677Z,102161.06
2023-05-25T15:07:25.140Z,102159.06
2023-05-25T15:09:51.605Z,102159.22
2023-05-25T15:12:18.037Z,102160.59
2023-05-25T15:14:44.538Z,102156.31
2023-05-25T15:17:11.027Z,102155.38
2023-05-25T15:19:37.483Z,102151.19
2023-05-25T15:22:04.196Z,102137.47
2023-05-25T15:24:30.680Z,102148.66
2023-05-25T15:26:57.459Z,102148.16
2023-05-25T15:29:24.255Z,102146.69
2023-05-25T15:31:52.866Z,102148.53
2023-05-25T15:34:20.150Z,102156.59
2023-05-25T15:36:46.634Z,102145.66
2023-05-25T15:39:14.615Z,102150.09
2023-05-25T15:41:41.934Z,102147.78
2023-05-25T15:44:12.330Z,102134.88
2023-05-25T15:46:40.268Z,102139.03
2023-05-25T15:49:11.144Z,102140.28
2023-05-25T15:51:41.852Z,102132.06
2023-05-25T15:54:10.576Z,102122.56
2023-05-25T15:56:39.299Z,102127.75
2023-05-25T15:59:05.776Z,102134.66
2023-05-25T16:01:34.353Z,102135.09
2023-05-25T16:04:01.277Z,102137.56
2023-05-25T16:06:28.085Z,102140.28
2023-05-25T16:08:54.689Z,102135.00
2023-05-25T16:11:21.168Z,102131.75
2023-05-25T16:13:47.640Z,102132.03
2023-05-25T16:16:14.275Z,102130.75
2023-05-25T16:18:41.483Z,102136.78
2023-05-25T16:21:07.956Z,102133.00
2023-05-25T16:23:34.553Z,102137.09
2023-05-25T16:26:01.056Z,102133.06
2023-05-25T16:28:28.143Z,102132.03
2023-05-25T16:30:54.721Z,102132.78
2023-05-25T16:33:21.260Z,102127.56
2023-05-25T16:35:48.030Z,102122.53
2023-05-25T16:38:14.604Z,102129.06
2023-05-25T16:40:41.064Z,102125.56
2023-05-25T16:43:07.499Z,102120.91
2023-05-25T16:45:34.043Z,102119.00
2023-05-25T16:48:00.773Z,102122.25
2023-05-25T16:50:27.392Z,102123.28
2023-05-25T16:52:53.893Z,102113.44
2023-05-25T16:55:20.623Z,102120.50
2023-05-25T16:57:47.636Z,102121.06
2023-05-25T17:00:14.638Z,102118.50
2023-05-25T17:02:41.295Z,102113.00
2023-05-25T17:05:08.515Z,102111.38
2023-05-25T17:07:35.945Z,102112.22
2023-05-25T17:10:02.607Z,102119.66
2023-05-25T17:12:29.108Z,102114.38
2023-05-25T17:14:56.200Z,102107.53
2023-05-25T17:17:22.710Z,102119.09
2023-05-25T17:19:50.655Z,102112.16
2023-05-25T17:22:17.109Z,102119.34
2023-05-25T17:24:43.668Z,102127.34
2023-05-25T17:27:10.259Z,102132.00
2023-05-25T17:29:37.704Z,102127.94
2023-05-25T17:32:04.423Z,102120.28
2023-05-25T17:34:30.968Z,102126.63
2023-05-25T17:36:57.509Z,102123.09
2023-05-25T17:39:23.960Z,102125.63
2023-05-25T17:41:50.691Z,102124.06
2023-05-25T17:44:17.389Z,102127.06
2023-05-25T17:46:43.952Z,102135.59
2023-05-25T17:49:10.561Z,102135.31
2023-05-25T17:51:37.701Z,102131.47
2023-05-25T17:54:04.370Z,102144.34
2023-05-25T17:56:30.994Z,102147.94
2023-05-25T17:58:57.665Z,102138.63
2023-05-25T18:01:24.321Z,102141.91
2023-05-25T18:03:53.237Z,102143.09
2023-05-25T18:06:19.790Z,102144.19
2023-05-25T18:08:46.276Z,102147.47
2023-05-25T18:11:13.108Z,102143.13
2023-05-25T18:13:39.539Z,102137.91
2023-05-25T18:16:06.052Z,102153.25
2023-05-25T18:18:32.590Z,102142.31
2023-05-25T18:20:59.367Z,102152.47
2023-05-25T18:23:26.242Z,102144.53
2023-05-25T18:25:53.131Z,102147.53
2023-05-25T18:28:19.611Z,102152.44
2023-05-25T18:30:46.226Z,102148.88
2023-05-25T18:33:12.836Z,102151.91
2023-05-25T18:35:39.869Z,102142.28
2023-05-25T18:38:06.756Z,102147.47
2023-05-25T18:40:33.281Z,102156.75
2023-05-25T18:43:00.013Z,102159.75
2023-05-25T18:45:27.293Z,102160.75
2023-05-25T18:47:54.078Z,102169.75
2023-05-25T18:50:20.649Z,102158.22
2023-05-25T18:52:50.924Z,102160.41
2023-05-25T18:55:18.623Z,102161.78
2023-05-25T18:57:45.072Z,102173.44
2023-05-25T19:00:12.307Z,102173.41
2023-05-25T19:02:38.995Z,102175.28
2023-05-25T19:05:06.089Z,102186.44
2023-05-25T19:07:37.756Z,102178.41
2023-05-25T19:10:07.141Z,102181.38
2023-05-25T19:12:33.646Z,102180.75
2023-05-25T19:15:00.135Z,102181.31
2023-05-25T19:17:27.223Z,102183.63
2023-05-25T19:19:54.995Z,102187.78
2023-05-25T19:22:21.499Z,102190.75
2023-05-25T19:24:50.560Z,102194.22
2023-05-25T19:27:24.084Z,102200.72
2023-05-25T19:29:50.738Z,102195.13
2023-05-25T19:32:17.491Z,102190.50
2023-05-25T19:34:43.991Z,102198.84
2023-05-25T19:37:11.400Z,102198.22
2023-05-25T19:39:38.440Z,102203.56
2023-05-25T19:42:04.944Z,102204.28
2023-05-25T19:44:31.891Z,102204.34
2023-05-25T19:46:59.847Z,102206.44
2023-05-25T19:49:26.553Z,102207.22
2023-05-25T19:51:53.072Z,102211.91
2023-05-25T19:54:19.537Z,102204.72
2023-05-25T19:56:46.318Z,102212.75
2023-05-25T19:59:12.965Z,102211.50
2023-05-25T20:01:39.536Z,102211.19
2023-05-25T20:04:06.395Z,102212.22
2023-05-25T20:06:33.668Z,102221.81
2023-05-25T20:09:00.233Z,102213.91
2023-05-25T20:11:27.758Z,102225.22
2023-05-25T20:13:55.338Z,102223.56
2023-05-25T20:16:22.560Z,102226.06
2023-05-25T20:18:49.329Z,102232.75
2023-05-25T20:21:15.996Z,102224.84
2023-05-25T20:23:42.394Z,102225.19
2023-05-25T20:26:08.820Z,102230.72
2023-05-25T20:28:35.291Z,102222.41
2023-05-25T20:31:01.762Z,102229.13
2023-05-25T20:33:28.338Z,102223.84
2023-05-25T20:35:54.964Z,102232.00
2023-05-25T20:38:21.479Z,102228.06
2023-05-25T20:40:48.135Z,102236.50
2023-05-25T20:43:14.789Z,102231.94
2023-05-25T20:45:41.318Z,102233.09
2023-05-25T20:48:07.973Z,102238.19
2023-05-25T20:50:34.440Z,102238.13
2023-05-25T20:53:00.877Z,102235.16
2023-05-25T20:55:27.587Z,102244.56
2023-05-25T20:57:54.244Z,102247.38
2023-05-25T21:00:22.000Z,102239.66
2023-05-25T21:02:48.712Z,102246.31
2023-05-25T21:05:15.487Z,102245.75
2023-05-25T21:07:42.018Z,102247.38
2023-05-25T21:10:08.827Z,102243.41
2023-05-25T21:12:35.473Z,102248.56
2023-05-25T21:15:02.019Z,102238.34
2023-05-25T21:17:28.758Z,102249.81
2023-05-25T21:19:55.524Z,102250.34
2023-05-25T21:22:22.156Z,102246.91
2023-05-25T21:24:49.873Z,102247.41
2023-05-25T21:27:17.672Z,102257.28
2023-05-25T21:29:44.094Z,102264.97
2023-05-25T21:32:11.257Z,102263.06
2023-05-25T21:34:37.689Z,102268.06
2023-05-25T21:37:04.404Z,102265.81
2023-05-25T21:39:30.805Z,102262.97
2023-05-25T21:41:57.429Z,102259.66
2023-05-25T21:44:23.874Z,102258.97
2023-05-25T21:46:50.315Z,102274.34
2023-05-25T21:49:16.913Z,102268.09
2023-05-25T21:51:43.406Z,102269.25
2023-05-25T21:54:09.828Z,102272.81
2023-05-25T21:56:36.351Z,102277.19
2023-05-25T21:59:02.872Z,102285.66
2023-05-25T22:01:29.412Z,102283.78
2023-05-25T22:03:56.439Z,102285.06
2023-05-25T22:06:22.989Z,102276.41
2023-05-25T22:08:49.713Z,102281.88
2023-05-25T22:11:16.217Z,102291.22
2023-05-25T22:13:48.614Z,102292.63
2023-05-25T22:16:15.138Z,102287.78
2023-05-25T22:18:43.013Z,102289.31
2023-05-25T22:21:09.608Z,102279.75
2023-05-25T22:23:36.143Z,102290.00
2023-05-25T22:26:04.848Z,102292.81
2023-05-25T22:28:31.391Z,102289.84
2023-05-25T22:30:58.275Z,102286.22
2023-05-25T22:33:24.787Z,102286.44
2023-05-25T22:35:51.347Z,102283.59
2023-05-25T22:38:17.823Z,102290.66
2023-05-25T22:40:47.656Z,102293.66
2023-05-25T22:43:14.783Z,102296.59
2023-05-25T22:45:41.329Z,102289.59
2023-05-25T22:48:09.044Z,102293.84
2023-05-25T22:50:35.525Z,102304.72
2023-05-25T22:53:02.252Z,102297.59
2023-05-25T22:55:28.810Z,102296.03
2023-05-25T22:57:55.419Z,102300.66
2023-05-25T23:00:21.861Z,102305.03
2023-05-25T23:02:48.848Z,102299.47
2023-05-25T23:05:15.442Z,102296.75
2023-05-25T23:07:41.920Z,102297.47
2023-05-25T23:10:08.774Z,102290.03
2023-05-25T23:12:35.248Z,102286.81
2023-05-25T23:15:02.762Z,102288.84
2023-05-25T23:17:29.266Z,102288.94
2023-05-25T23:19:56.041Z,102287.25
2023-05-25T23:22:22.674Z,102287.63
2023-05-25T23:24:49.270Z,102286.84
2023-05-25T23:27:15.944Z,102280.38
2023-05-25T23:29:42.398Z,102283.19
2023-05-25T23:32:08.915Z,102286.00
2023-05-25T23:34:35.673Z,102278.34
2023-05-25T23:37:03.330Z,102280.44
2023-05-25T23:39:31.554Z,102286.72
2023-05-25T23:41:58.090Z,102282.69
2023-05-25T23:44:24.544Z,102281.28
2023-05-25T23:46:51.164Z,102288.81
2023-05-25T23:49:17.611Z,102293.13
2023-05-25T23:51:44.228Z,102290.88
2023-05-25T23:54:10.905Z,102292.63
2023-05-25T23:56:37.973Z,102295.41
2023-05-25T23:59:04.385Z,102295.63
